createdAt,value
2023-02-11T00:02:08.327Z,84.48
2023-02-11T00:07:29.839Z,84.38
2023-02-11T00:12:50.621Z,84.21
2023-02-11T00:18:11.606Z,84.53
2023-02-11T00:23:32.450Z,84.74
2023-02-11T00:28:53.951Z,84.89
2023-02-11T00:34:14.692Z,85.16
2023-02-11T00:39:35.115Z,84.73
2023-02-11T00:44:57.127Z,85.08
2023-02-11T00:50:17.972Z,85.33
2023-02-11T00:55:38.516Z,85.06
2023-02-11T01:00:59.282Z,85.17
2023-02-11T01:06:19.939Z,85.18
2023-02-11T01:11:40.792Z,85.03
2023-02-11T01:17:01.258Z,85.13
2023-02-11T01:22:22.075Z,85.15
2023-02-11T01:27:43.186Z,85.21
2023-02-11T01:33:03.980Z,85.04
2023-02-11T01:38:26.341Z,85.26
2023-02-11T01:43:49.760Z,85.18
2023-02-11T01:49:20.704Z,85.50
2023-02-11T01:55:06.691Z,85.21
2023-02-11T02:00:39.655Z,85.36
2023-02-11T02:06:08.387Z,85.48
2023-02-11T02:11:29.267Z,85.58
2023-02-11T02:16:50.475Z,85.49
2023-02-11T02:22:24.506Z,85.62
2023-02-11T02:27:55.388Z,85.74
2023-02-11T02:33:30.205Z,85.64
2023-02-11T02:39:07.583Z,85.70
2023-02-11T02:44:31.378Z,85.78
2023-02-11T02:49:54.152Z,85.93
2023-02-11T02:55:36.808Z,85.93
2023-02-11T03:01:08.005Z,86.23
2023-02-11T03:06:33.961Z,85.88
2023-02-11T03:11:54.906Z,86.03
2023-02-11T03:17:16.906Z,85.83
2023-02-11T03:23:08.845Z,85.76
2023-02-11T03:28:30.216Z,85.86
2023-02-11T03:34:02.411Z,85.88
2023-02-11T03:39:33.235Z,86.09
2023-02-11T03:44:59.908Z,86.04
2023-02-11T03:50:22.050Z,86.45
2023-02-11T03:55:43.806Z,86.71
2023-02-11T04:01:05.148Z,86.69
2023-02-11T04:06:26.635Z,86.80
2023-02-11T04:11:47.324Z,86.59
2023-02-11T04:17:07.779Z,86.51
2023-02-11T04:22:28.102Z,86.46
2023-02-11T04:27:52.286Z,86.96
2023-02-11T04:33:12.949Z,86.82
2023-02-11T04:38:33.575Z,87.09
2023-02-11T04:43:54.548Z,87.28
2023-02-11T04:49:16.581Z,87.00
2023-02-11T05:03:51.809Z,87.77
2023-02-11T05:09:13.199Z,87.59
2023-02-11T05:14:33.578Z,87.82
2023-02-11T05:19:54.033Z,87.60
2023-02-11T05:25:14.816Z,87.95
2023-02-11T05:30:37.358Z,87.94
2023-02-11T05:36:03.462Z,88.04
2023-02-11T05:41:24.944Z,87.92
2023-02-11T05:46:45.830Z,87.56
2023-02-11T05:52:06.249Z,87.46
2023-02-11T05:57:27.093Z,87.64
2023-02-11T06:02:47.723Z,87.81
2023-02-11T06:08:08.206Z,87.83
2023-02-11T06:13:28.929Z,87.72
2023-02-11T06:18:49.217Z,87.75
2023-02-11T06:24:10.034Z,87.79
2023-02-11T06:29:30.712Z,87.85
2023-02-11T06:34:51.478Z,87.86
2023-02-11T06:40:12.986Z,88.04
2023-02-11T06:45:33.851Z,87.97
2023-02-11T06:50:54.559Z,87.89
2023-02-11T06:56:20.622Z,88.13
2023-02-11T07:01:41.051Z,87.91
2023-02-11T07:07:01.624Z,87.96
2023-02-11T07:12:22.240Z,87.91
2023-02-11T07:17:42.681Z,87.75
2023-02-11T07:23:03.068Z,87.59
2023-02-11T07:28:23.751Z,87.51
2023-02-11T07:33:45.958Z,87.58
2023-02-11T07:39:06.618Z,87.68
2023-02-11T07:44:26.989Z,87.55
2023-02-11T07:49:47.684Z,87.72
2023-02-11T07:55:09.936Z,87.93
2023-02-11T08:00:30.792Z,87.66
2023-02-11T08:05:51.614Z,87.28
2023-02-11T08:11:21.739Z,87.37
2023-02-11T08:16:43.787Z,86.99
2023-02-11T08:22:04.311Z,86.73
2023-02-11T08:27:26.734Z,86.52
2023-02-11T08:32:47.390Z,86.34
2023-02-11T08:38:08.900Z,86.29
2023-02-11T08:43:29.434Z,86.44
2023-02-11T08:48:51.377Z,86.31
2023-02-11T08:54:12.534Z,86.35
2023-02-11T08:59:33.290Z,86.06
2023-02-11T09:04:54.009Z,86.04
2023-02-11T09:10:14.744Z,85.61
2023-02-11T09:15:35.863Z,84.94
2023-02-11T09:21:04.823Z,84.81
2023-02-11T09:26:28.285Z,84.87
2023-02-11T09:31:51.445Z,85.46
2023-02-11T09:37:12.054Z,85.36
2023-02-11T09:43:02.358Z,85.68
2023-02-11T09:48:24.763Z,85.96
2023-02-11T09:53:45.770Z,85.83
2023-02-11T09:59:13.777Z,85.80
2023-02-11T10:04:53.938Z,86.02
2023-02-11T10:10:33.017Z,86.32
2023-02-11T10:16:18.331Z,86.04
2023-02-11T10:22:00.500Z,85.72
2023-02-11T10:27:28.526Z,85.27
2023-02-11T10:32:53.940Z,85.44
2023-02-11T10:38:14.922Z,85.38
2023-02-11T10:43:36.976Z,85.36
2023-02-11T10:48:57.369Z,85.45
2023-02-11T10:54:21.137Z,85.26
2023-02-11T10:59:42.059Z,85.57
2023-02-11T11:05:14.729Z,85.58
2023-02-11T11:11:03.587Z,85.67
2023-02-11T11:16:35.262Z,85.03
2023-02-11T11:21:56.893Z,85.08
2023-02-11T11:27:21.877Z,85.30
2023-02-11T11:32:43.381Z,85.26
2023-02-11T11:38:05.566Z,85.47
2023-02-11T11:43:26.090Z,85.41
2023-02-11T11:48:50.241Z,85.38
2023-02-11T11:54:17.731Z,85.49
2023-02-11T11:59:38.581Z,85.52
2023-02-11T12:05:22.609Z,85.37
2023-02-11T12:10:52.928Z,85.09
2023-02-11T12:16:29.386Z,85.55
2023-02-11T12:22:07.959Z,85.10
2023-02-11T12:27:37.993Z,85.15
2023-02-11T12:33:25.177Z,85.17
2023-02-11T12:39:04.336Z,85.15
2023-02-11T12:44:45.373Z,85.21
2023-02-11T12:50:27.369Z,85.17
2023-02-11T12:55:56.203Z,85.28
2023-02-11T13:01:22.893Z,84.94
2023-02-11T13:06:57.558Z,85.15
2023-02-11T13:12:37.393Z,84.72
2023-02-11T13:18:30.639Z,85.18
2023-02-11T13:23:58.876Z,84.74
2023-02-11T13:29:56.101Z,84.74
2023-02-11T13:35:37.669Z,84.94
2023-02-11T13:41:02.773Z,85.22
2023-02-11T13:46:24.154Z,84.84
2023-02-11T13:51:45.116Z,84.98
2023-02-11T13:57:21.323Z,85.03
2023-02-11T14:03:00.889Z,85.05
2023-02-11T14:08:44.443Z,85.14
2023-02-11T14:14:16.218Z,85.01
2023-02-11T14:19:46.002Z,85.09
2023-02-11T14:25:20.348Z,85.33
2023-02-11T14:30:49.176Z,85.42
2023-02-11T14:36:28.820Z,85.66
2023-02-11T14:41:51.171Z,85.99
2023-02-11T14:47:28.345Z,86.00
2023-02-11T14:52:49.461Z,86.16
2023-02-11T14:58:24.050Z,86.10
2023-02-11T15:03:48.748Z,86.37
2023-02-11T15:09:27.991Z,86.23
2023-02-11T15:14:51.619Z,86.19
2023-02-11T15:20:31.806Z,86.62
2023-02-11T15:25:55.875Z,86.45
2023-02-11T15:31:19.064Z,86.24
2023-02-11T15:36:40.939Z,86.22
2023-02-11T15:42:27.886Z,86.19
2023-02-11T15:47:54.202Z,86.29
2023-02-11T15:53:30.897Z,86.21
2023-02-11T15:58:58.273Z,86.27
2023-02-11T16:04:24.484Z,86.80
2023-02-11T16:09:45.240Z,86.87
2023-02-11T16:15:35.227Z,86.86
2023-02-11T16:20:56.661Z,86.66
2023-02-11T16:26:41.802Z,86.60
2023-02-11T16:32:28.037Z,86.40
2023-02-11T16:37:48.650Z,86.52
2023-02-11T16:43:09.122Z,86.54
2023-02-11T16:48:32.326Z,86.74
2023-02-11T16:53:53.104Z,86.84
2023-02-11T16:59:13.692Z,86.79
2023-02-11T17:04:35.381Z,86.79
2023-02-11T17:09:56.672Z,86.90
2023-02-11T17:15:17.585Z,87.01
2023-02-11T17:20:41.735Z,87.14
2023-02-11T17:26:02.053Z,86.85
2023-02-11T17:31:23.225Z,86.79
2023-02-11T17:36:44.439Z,86.74
2023-02-11T17:42:06.252Z,86.47
2023-02-11T17:47:29.281Z,86.23
2023-02-11T17:52:57.145Z,86.41
2023-02-11T17:58:18.146Z,86.31
2023-02-11T18:03:38.979Z,86.35
2023-02-11T18:09:02.163Z,86.54
2023-02-11T18:14:23.058Z,86.68
2023-02-11T18:19:43.458Z,87.07
2023-02-11T18:25:04.733Z,86.99
2023-02-11T18:30:25.753Z,86.96
2023-02-11T18:35:49.033Z,86.75
2023-02-11T18:41:10.526Z,86.77
2023-02-11T18:46:31.338Z,86.61
2023-02-11T18:51:51.636Z,86.88
2023-02-11T18:57:11.969Z,87.00
2023-02-11T19:02:32.441Z,87.16
2023-02-11T19:07:52.664Z,87.13
2023-02-11T19:13:14.202Z,87.50
2023-02-11T19:18:35.949Z,87.36
2023-02-11T19:23:56.278Z,87.43
2023-02-11T19:29:17.736Z,87.48
2023-02-11T19:34:41.475Z,87.45
2023-02-11T19:40:02.223Z,87.53
2023-02-11T19:45:22.602Z,87.59
2023-02-11T19:50:42.952Z,87.59
2023-02-11T19:56:07.884Z,87.53
2023-02-11T20:01:28.721Z,87.47
2023-02-11T20:06:49.390Z,87.55
2023-02-11T20:12:11.923Z,87.56
2023-02-11T20:17:34.909Z,87.60
2023-02-11T20:22:55.481Z,87.25
2023-02-11T20:28:16.947Z,87.02
2023-02-11T20:33:40.645Z,86.74
2023-02-11T20:39:02.771Z,86.72
2023-02-11T20:44:28.776Z,86.59
2023-02-11T20:49:49.897Z,86.65
2023-02-11T20:55:13.771Z,86.73
2023-02-11T21:00:39.412Z,86.80
2023-02-11T21:06:00.001Z,86.53
2023-02-11T21:11:23.901Z,86.55
2023-02-11T21:16:45.605Z,86.58
2023-02-11T21:22:09.698Z,86.45
2023-02-11T21:27:33.261Z,86.55
2023-02-11T21:32:55.539Z,86.62
2023-02-11T21:38:19.036Z,86.41
2023-02-11T21:43:39.673Z,86.50
2023-02-11T21:49:00.362Z,86.55
2023-02-11T21:54:20.897Z,86.63
2023-02-11T21:59:41.700Z,86.65
2023-02-11T22:05:02.667Z,87.06
2023-02-11T22:10:27.096Z,87.19
2023-02-11T22:16:00.198Z,87.30
2023-02-11T22:21:23.156Z,87.22
2023-02-11T22:26:47.955Z,87.92
2023-02-11T22:32:10.256Z,88.13
2023-02-11T22:37:31.269Z,88.25
2023-02-11T22:42:53.095Z,88.29
2023-02-11T22:48:13.575Z,88.10
2023-02-11T22:53:35.036Z,88.21
2023-02-11T22:59:15.144Z,88.43
2023-02-11T23:04:38.479Z,88.40
2023-02-11T23:10:01.376Z,88.45
2023-02-11T23:15:24.894Z,88.69
2023-02-11T23:20:54.356Z,88.61
2023-02-11T23:26:25.286Z,88.68
2023-02-11T23:31:47.214Z,88.65
2023-02-11T23:37:08.395Z,88.31
2023-02-11T23:42:29.252Z,88.41
2023-02-11T23:47:50.032Z,88.41
2023-02-11T23:53:11.399Z,87.89
2023-02-11T23:58:32.050Z,87.82
